Mexico City, DIF, Mexico
Current Conditions -  °F | °C
As of 9:48 PM on Tuesday 21 Oct 2014 (Local Time) from MMMX Reporting Station
Overcast Overcast  
Wind Chill: 61°   Ceiling: 8000
Heat Index: 61°   Visibility: 15mi
Dew Point: 52°   Wind: 9mph
Humidity: 72%   Direction: 10°N
Pressure: 30.26"   Gusts: NA
Location:  19.43°N, 99.14°W
Report Text: MMMX 220248Z 01008KT 15SM SCT020 OVC080 16/11 A3026 NOSIG RMK SLP097 52025 911 8/47/
Loading
Personal Weather Stations






























Interactive Weather Map
Tropical Storm Tracking
New forecast layout! Learn more

10-Day Weather Forecast

Advertisements
Track Severe Weather on mobile